createdAt,value
2023-03-16T00:01:06.403Z,98961.23
2023-03-16T00:03:58.404Z,98960.85
2023-03-16T00:06:50.460Z,98966.66
2023-03-16T00:09:43.204Z,98962.89
2023-03-16T00:12:35.636Z,98964.78
2023-03-16T00:15:27.696Z,98967.14
2023-03-16T00:18:04.916Z,98969.97
2023-03-16T00:20:58.778Z,98970.72
2023-03-16T00:23:50.724Z,98973.93
2023-03-16T00:26:42.710Z,98974.91
2023-03-16T00:29:34.810Z,98972.71
2023-03-16T00:32:28.511Z,98973.14
2023-03-16T00:35:21.589Z,98970.88
2023-03-16T00:38:13.562Z,98973.92
2023-03-16T00:41:07.807Z,98976.36
2023-03-16T00:43:59.760Z,98976.55
2023-03-16T00:46:51.757Z,98975.89
2023-03-16T00:49:45.566Z,98975.60
2023-03-16T00:52:37.582Z,98982.88
2023-03-16T00:55:29.668Z,98973.70
2023-03-16T00:58:23.237Z,98974.42
2023-03-16T01:01:17.264Z,98977.66
2023-03-16T01:04:09.489Z,98976.06
2023-03-16T01:07:02.124Z,98976.92
2023-03-16T01:09:54.097Z,98977.55
2023-03-16T01:12:46.283Z,98980.31
2023-03-16T01:15:26.951Z,98983.24
2023-03-16T01:18:20.270Z,98981.28
2023-03-16T01:21:13.924Z,98979.84
2023-03-16T01:24:06.446Z,98982.20
2023-03-16T01:26:58.720Z,98985.30
2023-03-16T01:29:50.802Z,98987.20
2023-03-16T01:32:43.367Z,98986.20
2023-03-16T01:35:35.549Z,98985.02
2023-03-16T01:38:27.993Z,98988.11
2023-03-16T01:41:19.964Z,98991.77
2023-03-16T01:44:16.814Z,98992.42
2023-03-16T01:47:09.020Z,98996.21
2023-03-16T01:50:01.007Z,98996.70
2023-03-16T01:52:53.215Z,98995.43
2023-03-16T01:55:45.460Z,98998.16
2023-03-16T01:58:38.638Z,98999.31
2023-03-16T02:01:30.833Z,99004.83
2023-03-16T02:04:37.472Z,99008.45
2023-03-16T02:07:34.545Z,99010.95
2023-03-16T02:10:29.288Z,99014.94
2023-03-16T02:13:21.812Z,99016.73
2023-03-16T02:16:19.374Z,99022.54
2023-03-16T02:19:18.327Z,99023.80
2023-03-16T02:22:11.627Z,99024.34
2023-03-16T02:25:03.662Z,99027.09
2023-03-16T02:28:04.245Z,99034.41
2023-03-16T02:30:56.959Z,99034.59
2023-03-16T02:33:51.316Z,99036.35
2023-03-16T02:36:46.063Z,99042.48
2023-03-16T02:39:38.099Z,99046.53
2023-03-16T02:42:31.538Z,99048.80
2023-03-16T02:45:25.025Z,99057.69
2023-03-16T02:48:22.287Z,99065.21
2023-03-16T02:51:14.848Z,99066.88
2023-03-16T02:54:06.853Z,99075.45
2023-03-16T02:56:58.798Z,99076.11
2023-03-16T02:59:51.915Z,99078.24
2023-03-16T03:02:43.965Z,99084.22
2023-03-16T03:05:36.021Z,99090.45
2023-03-16T03:08:28.079Z,99099.20
2023-03-16T03:11:20.653Z,99095.40
2023-03-16T03:14:13.020Z,99092.96
2023-03-16T03:17:05.066Z,99097.58
2023-03-16T03:19:57.027Z,99101.45
2023-03-16T03:22:52.583Z,99102.59
2023-03-16T03:25:45.339Z,99099.02
2023-03-16T03:28:37.370Z,99104.12
2023-03-16T03:31:29.413Z,99108.55
2023-03-16T03:34:21.428Z,99109.16
2023-03-16T03:37:13.588Z,99109.15
2023-03-16T03:40:06.828Z,99113.84
2023-03-16T03:42:47.957Z,99113.89
2023-03-16T03:45:40.040Z,99119.08
2023-03-16T03:48:32.363Z,99123.79
2023-03-16T03:51:24.351Z,99126.90
2023-03-16T03:54:16.377Z,99127.21
2023-03-16T03:57:08.613Z,99127.70
2023-03-16T04:00:00.958Z,99129.02
2023-03-16T04:02:53.077Z,99133.38
2023-03-16T04:05:45.176Z,99140.79
2023-03-16T04:08:37.251Z,99146.70
2023-03-16T04:11:29.536Z,99147.20
2023-03-16T04:14:21.590Z,99154.16
2023-03-16T04:17:13.849Z,99155.36
2023-03-16T04:20:11.531Z,99155.63
2023-03-16T04:22:58.656Z,99159.63
2023-03-16T04:25:50.824Z,99167.48
2023-03-16T04:28:43.271Z,99165.02
2023-03-16T04:31:35.367Z,99165.04
2023-03-16T04:34:27.441Z,99166.20
2023-03-16T04:37:19.481Z,99165.64
2023-03-16T04:40:20.160Z,99167.83
2023-03-16T04:42:54.975Z,99168.48
2023-03-16T04:45:47.081Z,99167.35
2023-03-16T04:48:39.491Z,99167.20
2023-03-16T04:51:32.385Z,99166.99
2023-03-16T04:54:24.519Z,99164.42
2023-03-16T04:57:19.291Z,99169.71
2023-03-16T05:00:18.898Z,99173.33
2023-03-16T05:03:11.274Z,99172.75
2023-03-16T05:06:03.325Z,99172.75
2023-03-16T05:08:55.367Z,99179.85
2023-03-16T05:11:47.339Z,99178.77
2023-03-16T05:14:39.393Z,99189.72
2023-03-16T05:17:31.492Z,99192.09
2023-03-16T05:20:24.416Z,99190.44
2023-03-16T05:23:16.733Z,99188.45
2023-03-16T05:26:09.237Z,99192.22
2023-03-16T05:29:01.301Z,99197.59
2023-03-16T05:31:54.122Z,99196.38
2023-03-16T05:34:46.300Z,99196.05
2023-03-16T05:37:38.464Z,99203.71
2023-03-16T05:40:30.771Z,99200.67
2023-03-16T05:43:23.066Z,99203.92
2023-03-16T05:46:15.079Z,99207.46
2023-03-16T05:49:07.090Z,99206.20
2023-03-16T05:51:59.260Z,99205.66
2023-03-16T05:54:51.306Z,99208.34
2023-03-16T05:57:44.330Z,99210.96
2023-03-16T06:00:25.659Z,99213.11
2023-03-16T06:03:18.000Z,99218.10
2023-03-16T06:06:10.042Z,99225.08
2023-03-16T06:09:02.075Z,99226.05
2023-03-16T06:11:54.014Z,99227.39
2023-03-16T06:14:45.999Z,99233.50
2023-03-16T06:17:39.076Z,99240.79
2023-03-16T06:20:31.134Z,99241.35
2023-03-16T06:23:23.084Z,99247.88
2023-03-16T06:25:59.554Z,99250.84
2023-03-16T06:28:52.085Z,99251.77
2023-03-16T06:31:44.093Z,99251.50
2023-03-16T06:34:38.170Z,99257.25
2023-03-16T06:37:29.033Z,99260.22
2023-03-16T06:40:21.956Z,99260.07
2023-03-16T06:43:16.977Z,99264.38
2023-03-16T06:46:09.229Z,99263.90
2023-03-16T06:49:01.524Z,99264.02
2023-03-16T06:51:39.089Z,99266.19
2023-03-16T06:54:32.522Z,99266.96
2023-03-16T06:57:24.758Z,99269.58
2023-03-16T06:59:56.614Z,99270.84
2023-03-16T07:02:48.673Z,99274.07
2023-03-16T07:05:42.323Z,99278.71
2023-03-16T07:08:35.787Z,99282.19
2023-03-16T07:11:32.412Z,99286.44
2023-03-16T07:14:26.320Z,99284.77
2023-03-16T07:17:19.369Z,99288.02
2023-03-16T07:20:13.688Z,99289.27
2023-03-16T07:23:09.066Z,99285.98
2023-03-16T07:26:01.971Z,99287.99
2023-03-16T07:28:57.561Z,99288.61
2023-03-16T07:31:50.825Z,99288.02
2023-03-16T07:34:54.556Z,99286.95
2023-03-16T07:37:47.177Z,99288.83
2023-03-16T07:40:40.200Z,99289.45
2023-03-16T07:43:33.755Z,99292.65
2023-03-16T07:46:26.321Z,99291.07
2023-03-16T07:49:02.511Z,99293.48
2023-03-16T07:51:54.912Z,99297.23
2023-03-16T07:54:48.843Z,99297.27
2023-03-16T07:57:42.223Z,99298.39
2023-03-16T08:00:37.583Z,99300.74
2023-03-16T08:03:31.849Z,99300.83
2023-03-16T08:06:25.422Z,99296.63
2023-03-16T08:09:17.736Z,99297.86
2023-03-16T08:12:12.311Z,99298.17
2023-03-16T08:15:05.960Z,99292.89
2023-03-16T08:18:07.092Z,99298.88
2023-03-16T08:21:04.453Z,99304.11
2023-03-16T08:24:00.224Z,99306.23
2023-03-16T08:26:52.590Z,99313.38
2023-03-16T08:29:45.146Z,99315.29
2023-03-16T08:32:39.620Z,99317.10
2023-03-16T08:35:38.775Z,99320.02
2023-03-16T08:38:32.202Z,99312.52
2023-03-16T08:41:24.840Z,99312.96
2023-03-16T08:44:19.060Z,99305.41
2023-03-16T08:47:14.985Z,99303.79
2023-03-16T08:50:12.349Z,99302.71
2023-03-16T08:53:15.508Z,99301.23
2023-03-16T08:56:11.367Z,99303.00
2023-03-16T08:59:27.010Z,99304.99
2023-03-16T09:02:11.950Z,99305.45
2023-03-16T09:05:05.005Z,99304.71
2023-03-16T09:08:01.626Z,99304.41
2023-03-16T09:11:01.737Z,99307.58
2023-03-16T09:13:55.300Z,99311.45
2023-03-16T09:16:50.538Z,99311.14
2023-03-16T09:19:52.733Z,99323.39
2023-03-16T09:22:46.997Z,99323.88
2023-03-16T09:25:39.737Z,99325.75
2023-03-16T09:28:14.825Z,99325.72
2023-03-16T09:31:08.155Z,99322.08
2023-03-16T09:34:01.269Z,99318.06
2023-03-16T09:36:55.281Z,99322.35
2023-03-16T09:39:37.078Z,99320.58
2023-03-16T09:42:37.498Z,99320.19
2023-03-16T09:45:36.897Z,99320.96
2023-03-16T09:48:31.770Z,99317.41
2023-03-16T09:51:38.740Z,99321.81
2023-03-16T09:54:39.598Z,99328.86
2023-03-16T09:57:35.813Z,99332.39
2023-03-16T10:00:38.665Z,99332.24
2023-03-16T10:03:41.691Z,99332.57
2023-03-16T10:06:21.765Z,99327.46
2023-03-16T10:09:26.171Z,99329.83
2023-03-16T10:12:18.272Z,99334.23
2023-03-16T10:15:17.880Z,99340.36
2023-03-16T10:18:16.933Z,99339.85
2023-03-16T10:21:16.875Z,99342.74
2023-03-16T10:24:34.286Z,99347.23
2023-03-16T10:27:31.533Z,99351.63
2023-03-16T10:30:28.241Z,99353.64
2023-03-16T10:33:27.047Z,99350.27
2023-03-16T10:36:30.584Z,99350.44
2023-03-16T10:39:22.478Z,99355.51
2023-03-16T10:42:04.241Z,99351.70
2023-03-16T10:45:03.029Z,99350.52
2023-03-16T10:48:06.368Z,99344.77
2023-03-16T10:51:02.031Z,99343.54
2023-03-16T10:53:57.100Z,99344.61
2023-03-16T10:56:50.604Z,99337.42
2023-03-16T10:59:53.094Z,99342.31
2023-03-16T11:02:45.805Z,99341.83
2023-03-16T11:05:41.869Z,99340.29
2023-03-16T11:08:38.837Z,99338.21
2023-03-16T11:11:17.376Z,99341.52
2023-03-16T11:14:15.304Z,99346.89
2023-03-16T11:17:16.121Z,99351.02
2023-03-16T11:20:17.803Z,99349.99
2023-03-16T11:23:16.555Z,99349.04
2023-03-16T11:26:22.238Z,99345.14
2023-03-16T11:29:21.459Z,99339.76
2023-03-16T11:32:20.435Z,99339.95
2023-03-16T11:35:20.534Z,99342.31
2023-03-16T11:38:19.592Z,99343.70
2023-03-16T11:41:21.353Z,99346.55
2023-03-16T11:44:23.589Z,99344.08
2023-03-16T11:47:39.657Z,99336.61
2023-03-16T11:50:44.959Z,99323.75
2023-03-16T11:53:41.526Z,99313.95
2023-03-16T11:56:40.518Z,99312.68
2023-03-16T12:00:03.593Z,99306.98
2023-03-16T12:03:13.550Z,99313.20
2023-03-16T12:06:24.275Z,99313.31
2023-03-16T12:09:48.311Z,99313.66
2023-03-16T12:12:54.652Z,99314.98
2023-03-16T12:15:49.926Z,99312.70
2023-03-16T12:18:49.575Z,99310.23
2023-03-16T12:21:46.956Z,99310.30
2023-03-16T12:24:45.480Z,99307.99
2023-03-16T12:27:41.135Z,99308.83
2023-03-16T12:30:44.855Z,99313.23
2023-03-16T12:33:49.856Z,99313.24
2023-03-16T12:37:03.419Z,99312.54
2023-03-16T12:40:11.036Z,99308.73
2023-03-16T12:43:31.062Z,99295.08
2023-03-16T12:46:32.678Z,99297.94
2023-03-16T12:49:28.431Z,99297.73
2023-03-16T12:52:22.471Z,99301.66
2023-03-16T12:55:18.807Z,99301.70
2023-03-16T12:58:12.673Z,99302.67
2023-03-16T13:01:12.333Z,99306.81
2023-03-16T13:04:03.854Z,99307.41
2023-03-16T13:07:07.687Z,99306.30
2023-03-16T13:10:03.701Z,99308.41
2023-03-16T13:13:08.281Z,99308.84
2023-03-16T13:16:10.964Z,99315.76
2023-03-16T13:19:24.644Z,99315.73
2023-03-16T13:22:29.654Z,99316.85
2023-03-16T13:25:38.322Z,99317.35
2023-03-16T13:28:34.417Z,99319.51
2023-03-16T13:31:34.140Z,99327.95
2023-03-16T13:34:30.984Z,99329.91
2023-03-16T13:37:25.132Z,99331.10
2023-03-16T13:40:24.676Z,99332.05
2023-03-16T13:43:23.794Z,99335.08
2023-03-16T13:46:19.679Z,99330.06
2023-03-16T13:49:15.377Z,99328.43
2023-03-16T13:52:13.104Z,99327.96
2023-03-16T13:55:15.317Z,99332.10
2023-03-16T13:58:23.334Z,99323.55
2023-03-16T14:01:24.668Z,99329.45
2023-03-16T14:04:19.845Z,99327.58
2023-03-16T14:07:20.067Z,99329.39
2023-03-16T14:10:17.055Z,99327.90
2023-03-16T14:13:25.504Z,99327.88
2023-03-16T14:16:02.517Z,99323.20
2023-03-16T14:18:59.396Z,99322.27
2023-03-16T14:21:51.630Z,99322.87
2023-03-16T14:24:45.294Z,99323.89
2023-03-16T14:27:47.468Z,99325.98
2023-03-16T14:30:39.549Z,99330.02
2023-03-16T14:33:33.620Z,99330.41
2023-03-16T14:36:46.261Z,99326.82
2023-03-16T14:39:40.331Z,99330.70
2023-03-16T14:42:33.174Z,99328.83
2023-03-16T14:45:27.770Z,99326.89
2023-03-16T14:48:23.106Z,99330.61
2023-03-16T14:51:16.615Z,99325.17
2023-03-16T14:54:14.727Z,99331.27
2023-03-16T14:57:08.268Z,99326.48
2023-03-16T15:00:00.332Z,99329.20
2023-03-16T15:02:59.365Z,99322.48
2023-03-16T15:05:53.053Z,99329.89
2023-03-16T15:08:47.845Z,99332.21
2023-03-16T15:11:43.265Z,99327.52
2023-03-16T15:14:52.515Z,99328.95
2023-03-16T15:17:45.620Z,99333.31
2023-03-16T15:20:41.628Z,99334.82
2023-03-16T15:23:33.704Z,99331.58
2023-03-16T15:26:27.912Z,99334.54
2023-03-16T15:29:20.074Z,99337.58
2023-03-16T15:32:16.207Z,99336.19
2023-03-16T15:34:48.435Z,99334.02
2023-03-16T15:37:40.699Z,99336.14
2023-03-16T15:40:33.641Z,99335.47
2023-03-16T15:43:28.904Z,99335.25
2023-03-16T15:46:13.847Z,99339.74
2023-03-16T15:48:54.659Z,99339.19
2023-03-16T15:51:46.727Z,99346.11
2023-03-16T15:54:39.230Z,99350.01
2023-03-16T15:57:15.102Z,99351.73
2023-03-16T15:59:47.542Z,99353.31
2023-03-16T16:02:39.522Z,99357.31
2023-03-16T16:05:32.437Z,99354.82
2023-03-16T16:08:24.802Z,99355.19
2023-03-16T16:11:20.709Z,99353.23
2023-03-16T16:14:16.188Z,99360.38
2023-03-16T16:17:15.657Z,99363.50
2023-03-16T16:20:23.059Z,99361.23
2023-03-16T16:23:15.244Z,99359.09
2023-03-16T16:26:26.313Z,99357.15
2023-03-16T16:29:22.606Z,99363.81
2023-03-16T16:31:57.419Z,99369.56
2023-03-16T16:35:03.324Z,99366.80
2023-03-16T16:37:56.115Z,99371.63
2023-03-16T16:40:48.702Z,99376.33
2023-03-16T16:43:33.494Z,99374.73
2023-03-16T16:46:28.422Z,99384.45
2023-03-16T16:49:22.548Z,99380.91
2023-03-16T16:51:59.459Z,99384.05
2023-03-16T16:54:50.560Z,99383.80
2023-03-16T16:57:43.093Z,99380.74
2023-03-16T17:00:35.343Z,99384.42
2023-03-16T17:03:29.328Z,99382.20
2023-03-16T17:06:01.576Z,99385.54
2023-03-16T17:08:40.885Z,99387.80
2023-03-16T17:11:34.050Z,99392.63
2023-03-16T17:14:28.108Z,99392.27
2023-03-16T17:17:16.797Z,99389.77
2023-03-16T17:20:19.337Z,99400.08
2023-03-16T17:23:26.967Z,99397.06
2023-03-16T17:26:23.376Z,99403.30
2023-03-16T17:29:22.534Z,99403.71
2023-03-16T17:32:16.078Z,99405.47
2023-03-16T17:35:16.545Z,99408.60
2023-03-16T17:38:19.761Z,99415.39
2023-03-16T17:40:56.212Z,99415.29
2023-03-16T17:43:48.849Z,99412.98
2023-03-16T17:46:37.662Z,99414.34
2023-03-16T17:49:30.862Z,99406.83
2023-03-16T17:52:25.713Z,99408.92
2023-03-16T17:55:20.495Z,99409.71
2023-03-16T17:58:25.652Z,99409.75
2023-03-16T18:01:18.180Z,99409.79
2023-03-16T18:04:18.729Z,99410.86
2023-03-16T18:06:54.684Z,99412.87
2023-03-16T18:09:47.032Z,99420.09
2023-03-16T18:12:39.027Z,99419.23
2023-03-16T18:15:33.819Z,99425.27
2023-03-16T18:18:21.273Z,99428.09
2023-03-16T18:21:20.574Z,99430.73
2023-03-16T18:24:17.258Z,99432.61
2023-03-16T18:27:10.130Z,99437.69
2023-03-16T18:30:02.070Z,99436.85
2023-03-16T18:32:39.497Z,99434.55
2023-03-16T18:35:19.165Z,99436.55
2023-03-16T18:38:20.525Z,99437.48
2023-03-16T18:41:18.533Z,99436.72
2023-03-16T18:44:22.447Z,99432.63
2023-03-16T18:47:19.751Z,99438.45
2023-03-16T18:50:19.715Z,99444.30
2023-03-16T18:53:16.005Z,99446.25
2023-03-16T18:56:13.068Z,99451.77
2023-03-16T18:59:05.448Z,99451.68
2023-03-16T19:01:57.974Z,99449.70
2023-03-16T19:04:50.404Z,99452.20
2023-03-16T19:07:45.699Z,99456.30
2023-03-16T19:10:42.735Z,99455.08
2023-03-16T19:13:21.055Z,99455.17
2023-03-16T19:16:19.399Z,99460.45
2023-03-16T19:19:12.394Z,99466.89
2023-03-16T19:22:09.639Z,99469.73
2023-03-16T19:25:02.365Z,99471.53
2023-03-16T19:27:55.446Z,99471.88
2023-03-16T19:30:48.114Z,99471.73
2023-03-16T19:33:42.114Z,99476.48
2023-03-16T19:36:34.764Z,99478.32
2023-03-16T19:39:27.801Z,99485.13
2023-03-16T19:42:23.555Z,99484.02
2023-03-16T19:45:18.961Z,99490.28
2023-03-16T19:48:01.495Z,99484.02
2023-03-16T19:50:53.487Z,99488.23
2023-03-16T19:53:46.016Z,99490.98
2023-03-16T19:56:26.998Z,99491.94
2023-03-16T19:59:20.484Z,99492.44
2023-03-16T20:02:26.623Z,99494.42
2023-03-16T20:05:23.799Z,99491.30
2023-03-16T20:08:15.011Z,99492.86
2023-03-16T20:11:09.139Z,99494.30
2023-03-16T20:14:02.261Z,99498.72
2023-03-16T20:16:54.632Z,99499.35
2023-03-16T20:19:26.574Z,99502.20
2023-03-16T20:22:21.454Z,99504.92
2023-03-16T20:25:13.668Z,99506.52
2023-03-16T20:28:13.698Z,99507.25
2023-03-16T20:31:07.917Z,99507.61
2023-03-16T20:34:00.457Z,99507.75
2023-03-16T20:36:52.503Z,99500.48
2023-03-16T20:39:45.187Z,99498.64
2023-03-16T20:42:38.011Z,99503.66
2023-03-16T20:45:31.819Z,99504.48
2023-03-16T20:48:25.419Z,99502.06
2023-03-16T20:51:13.746Z,99499.61
2023-03-16T20:54:05.889Z,99501.59
2023-03-16T20:56:49.287Z,99502.06
2023-03-16T20:59:41.340Z,99505.80
2023-03-16T21:02:35.419Z,99505.23
2023-03-16T21:05:27.783Z,99506.46
2023-03-16T21:08:20.645Z,99501.20
2023-03-16T21:10:59.715Z,99503.30
2023-03-16T21:13:51.811Z,99508.08
2023-03-16T21:16:26.735Z,99508.31
2023-03-16T21:19:21.675Z,99508.48
2023-03-16T21:22:24.458Z,99508.06
2023-03-16T21:25:25.696Z,99504.49
2023-03-16T21:28:19.857Z,99511.11
2023-03-16T21:31:18.302Z,99509.38
2023-03-16T21:34:23.709Z,99508.61
2023-03-16T21:37:17.965Z,99509.88
2023-03-16T21:40:19.033Z,99511.70
2023-03-16T21:43:12.088Z,99514.41
2023-03-16T21:46:04.910Z,99518.28
2023-03-16T21:48:57.985Z,99518.61
2023-03-16T21:51:32.702Z,99523.39
2023-03-16T21:54:25.598Z,99527.15
2023-03-16T21:56:59.632Z,99522.38
2023-03-16T21:59:51.965Z,99525.05
2023-03-16T22:02:29.390Z,99529.31
2023-03-16T22:05:38.301Z,99522.39
2023-03-16T22:08:32.638Z,99516.75
2023-03-16T22:11:28.071Z,99507.10
2023-03-16T22:14:20.267Z,99500.98
2023-03-16T22:17:22.553Z,99504.22
2023-03-16T22:20:20.309Z,99503.19
2023-03-16T22:23:28.118Z,99506.36
2023-03-16T22:26:23.463Z,99505.20
2023-03-16T22:29:23.319Z,99500.04
2023-03-16T22:32:19.094Z,99499.17
2023-03-16T22:35:31.522Z,99495.33
2023-03-16T22:38:23.881Z,99489.88
2023-03-16T22:41:18.020Z,99489.45
2023-03-16T22:44:13.932Z,99489.40
2023-03-16T22:47:07.272Z,99489.56
2023-03-16T22:49:59.458Z,99490.31
2023-03-16T22:52:53.711Z,99483.29
2023-03-16T22:55:45.833Z,99482.23
2023-03-16T22:58:40.488Z,99482.58
2023-03-16T23:01:35.636Z,99482.59
2023-03-16T23:04:32.304Z,99479.98
2023-03-16T23:07:24.519Z,99472.77
2023-03-16T23:10:19.912Z,99474.46
2023-03-16T23:13:16.796Z,99474.94
2023-03-16T23:16:20.985Z,99477.36
2023-03-16T23:19:25.349Z,99480.61
2023-03-16T23:22:18.321Z,99475.98
2023-03-16T23:25:11.027Z,99475.61
2023-03-16T23:28:04.150Z,99481.98
2023-03-16T23:30:56.528Z,99482.96
2023-03-16T23:33:49.057Z,99490.32
2023-03-16T23:36:41.088Z,99494.22
2023-03-16T23:39:33.139Z,99493.59
2023-03-16T23:42:25.233Z,99495.22
2023-03-16T23:45:29.414Z,99497.02
2023-03-16T23:48:23.550Z,99501.23
2023-03-16T23:51:22.164Z,99503.98
2023-03-16T23:54:18.345Z,99508.85
2023-03-16T23:57:11.121Z,99505.70
